sensor_id;sensor_type;location;lat;lon;timestamp;P1;durP1;ratioP1;P2;durP2;ratioP2
71236;SDS011;58984;51.960;5.582;2024-03-23T00:54:15;19.05;;;8.20;;
71236;SDS011;58984;51.960;5.582;2024-03-23T00:56:40;15.93;;;8.18;;
71236;SDS011;58984;51.960;5.582;2024-03-23T00:59:06;17.50;;;9.05;;
71236;SDS011;58984;51.960;5.582;2024-03-23T01:01:31;19.02;;;9.50;;
71236;SDS011;58984;51.960;5.582;2024-03-23T01:03:57;16.50;;;9.07;;
71236;SDS011;58984;51.960;5.582;2024-03-23T01:06:23;16.25;;;8.80;;
71236;SDS011;58984;51.960;5.582;2024-03-23T01:08:48;22.23;;;9.90;;
71236;SDS011;58984;51.960;5.582;2024-03-23T01:11:14;16.50;;;9.45;;
71236;SDS011;58984;51.960;5.582;2024-03-23T01:13:40;24.55;;;9.25;;
71236;SDS011;58984;51.960;5.582;2024-03-23T01:16:05;22.33;;;9.85;;
71236;SDS011;58984;51.960;5.582;2024-03-23T01:18:31;22.95;;;9.98;;
71236;SDS011;58984;51.960;5.582;2024-03-23T01:20:57;24.58;;;9.95;;
71236;SDS011;58984;51.960;5.582;2024-03-23T01:23:23;18.45;;;10.30;;
71236;SDS011;58984;51.960;5.582;2024-03-23T01:25:52;20.63;;;10.68;;
71236;SDS011;58984;51.960;5.582;2024-03-23T01:28:19;19.63;;;10.75;;
71236;SDS011;58984;51.960;5.582;2024-03-23T01:30:45;22.02;;;10.63;;
71236;SDS011;58984;51.960;5.582;2024-03-23T01:33:10;26.55;;;11.10;;
71236;SDS011;58984;51.960;5.582;2024-03-23T01:35:36;18.20;;;10.98;;
71236;SDS011;58984;51.960;5.582;2024-03-23T01:38:02;28.02;;;11.52;;
71236;SDS011;58984;51.960;5.582;2024-03-23T01:40:28;21.80;;;10.50;;
71236;SDS011;58984;51.960;5.582;2024-03-23T01:43:06;19.23;;;10.82;;
71236;SDS011;58984;51.960;5.582;2024-03-23T01:45:33;21.95;;;11.13;;
71236;SDS011;58984;51.960;5.582;2024-03-23T01:47:59;26.50;;;12.27;;
71236;SDS011;58984;51.960;5.582;2024-03-23T01:50:25;21.25;;;11.55;;
71236;SDS011;58984;51.960;5.582;2024-03-23T01:52:52;26.08;;;11.40;;
71236;SDS011;58984;51.960;5.582;2024-03-23T01:55:18;22.77;;;11.38;;
71236;SDS011;58984;51.960;5.582;2024-03-23T01:57:44;27.20;;;12.50;;
71236;SDS011;58984;51.960;5.582;2024-03-23T02:00:10;21.75;;;11.73;;
71236;SDS011;58984;51.960;5.582;2024-03-23T02:02:40;23.85;;;12.30;;
71236;SDS011;58984;51.960;5.582;2024-03-23T02:05:08;18.75;;;11.40;;
71236;SDS011;58984;51.960;5.582;2024-03-23T02:07:33;30.73;;;13.05;;
71236;SDS011;58984;51.960;5.582;2024-03-23T02:09:59;30.73;;;13.20;;
71236;SDS011;58984;51.960;5.582;2024-03-23T02:12:26;21.55;;;12.02;;
71236;SDS011;58984;51.960;5.582;2024-03-23T02:14:51;30.05;;;11.95;;
71236;SDS011;58984;51.960;5.582;2024-03-23T02:17:17;24.00;;;12.15;;
71236;SDS011;58984;51.960;5.582;2024-03-23T02:19:43;25.25;;;12.63;;
71236;SDS011;58984;51.960;5.582;2024-03-23T02:22:08;25.83;;;12.88;;
71236;SDS011;58984;51.960;5.582;2024-03-23T02:24:37;24.88;;;12.77;;
71236;SDS011;58984;51.960;5.582;2024-03-23T02:27:03;24.52;;;13.40;;
71236;SDS011;58984;51.960;5.582;2024-03-23T02:29:28;20.52;;;11.90;;
71236;SDS011;58984;51.960;5.582;2024-03-23T02:31:54;20.20;;;11.90;;
71236;SDS011;58984;51.960;5.582;2024-03-23T02:34:19;22.05;;;12.93;;
71236;SDS011;58984;51.960;5.582;2024-03-23T02:36:45;26.80;;;13.00;;
71236;SDS011;58984;51.960;5.582;2024-03-23T02:39:11;20.13;;;12.18;;
71236;SDS011;58984;51.960;5.582;2024-03-23T02:41:36;22.25;;;12.48;;
71236;SDS011;58984;51.960;5.582;2024-03-23T02:44:02;24.17;;;12.27;;
71236;SDS011;58984;51.960;5.582;2024-03-23T02:46:28;20.85;;;12.43;;
71236;SDS011;58984;51.960;5.582;2024-03-23T02:48:53;23.02;;;12.80;;
71236;SDS011;58984;51.960;5.582;2024-03-23T02:51:19;23.38;;;13.45;;
71236;SDS011;58984;51.960;5.582;2024-03-23T02:53:44;24.17;;;12.32;;
71236;SDS011;58984;51.960;5.582;2024-03-23T02:56:10;21.67;;;12.43;;
71236;SDS011;58984;51.960;5.582;2024-03-23T02:58:40;22.13;;;12.38;;
71236;SDS011;58984;51.960;5.582;2024-03-23T03:01:06;22.40;;;12.18;;
71236;SDS011;58984;51.960;5.582;2024-03-23T03:03:32;21.02;;;11.85;;
71236;SDS011;58984;51.960;5.582;2024-03-23T03:05:57;21.15;;;11.70;;
71236;SDS011;58984;51.960;5.582;2024-03-23T03:08:23;20.67;;;12.35;;
71236;SDS011;58984;51.960;5.582;2024-03-23T03:10:49;20.30;;;11.40;;
71236;SDS011;58984;51.960;5.582;2024-03-23T03:13:15;28.15;;;12.40;;
71236;SDS011;58984;51.960;5.582;2024-03-23T03:15:41;20.27;;;11.30;;
71236;SDS011;58984;51.960;5.582;2024-03-23T03:18:08;25.17;;;11.88;;
71236;SDS011;58984;51.960;5.582;2024-03-23T03:20:34;24.70;;;11.90;;
71236;SDS011;58984;51.960;5.582;2024-03-23T03:23:06;25.30;;;10.95;;
71236;SDS011;58984;51.960;5.582;2024-03-23T03:25:32;18.25;;;10.80;;
71236;SDS011;58984;51.960;5.582;2024-03-23T03:27:57;20.35;;;11.30;;
71236;SDS011;58984;51.960;5.582;2024-03-23T03:30:24;21.40;;;10.65;;
71236;SDS011;58984;51.960;5.582;2024-03-23T03:32:51;18.92;;;10.60;;
71236;SDS011;58984;51.960;5.582;2024-03-23T03:35:20;19.00;;;10.70;;
71236;SDS011;58984;51.960;5.582;2024-03-23T03:37:45;17.25;;;9.55;;
71236;SDS011;58984;51.960;5.582;2024-03-23T03:40:11;19.75;;;9.77;;
71236;SDS011;58984;51.960;5.582;2024-03-23T03:42:37;19.30;;;8.98;;
71236;SDS011;58984;51.960;5.582;2024-03-23T03:45:03;17.08;;;9.57;;
71236;SDS011;58984;51.960;5.582;2024-03-23T03:47:29;16.75;;;9.65;;
71236;SDS011;58984;51.960;5.582;2024-03-23T03:49:55;18.30;;;9.10;;
71236;SDS011;58984;51.960;5.582;2024-03-23T03:52:21;20.25;;;8.65;;
71236;SDS011;58984;51.960;5.582;2024-03-23T03:54:47;14.40;;;9.35;;
71236;SDS011;58984;51.960;5.582;2024-03-23T03:57:15;16.02;;;8.00;;
71236;SDS011;58984;51.960;5.582;2024-03-23T03:59:41;15.57;;;7.75;;
71236;SDS011;58984;51.960;5.582;2024-03-23T04:02:07;14.48;;;7.60;;
71236;SDS011;58984;51.960;5.582;2024-03-23T04:04:32;20.45;;;8.13;;
71236;SDS011;58984;51.960;5.582;2024-03-23T04:07:01;13.85;;;7.63;;
71236;SDS011;58984;51.960;5.582;2024-03-23T04:09:27;18.17;;;7.88;;
71236;SDS011;58984;51.960;5.582;2024-03-23T04:11:53;18.20;;;7.97;;
71236;SDS011;58984;51.960;5.582;2024-03-23T04:14:19;13.63;;;6.85;;
71236;SDS011;58984;51.960;5.582;2024-03-23T04:16:44;11.45;;;6.55;;
71236;SDS011;58984;51.960;5.582;2024-03-23T04:19:10;18.50;;;6.88;;
71236;SDS011;58984;51.960;5.582;2024-03-23T04:21:36;13.48;;;6.60;;
71236;SDS011;58984;51.960;5.582;2024-03-23T04:24:03;8.95;;;6.13;;
71236;SDS011;58984;51.960;5.582;2024-03-23T04:26:29;14.98;;;7.07;;
71236;SDS011;58984;51.960;5.582;2024-03-23T04:28:54;15.75;;;6.38;;
71236;SDS011;58984;51.960;5.582;2024-03-23T04:31:20;9.85;;;6.07;;
71236;SDS011;58984;51.960;5.582;2024-03-23T04:33:46;12.70;;;5.93;;
71236;SDS011;58984;51.960;5.582;2024-03-23T04:36:12;15.63;;;6.53;;
71236;SDS011;58984;51.960;5.582;2024-03-23T04:38:38;15.05;;;6.20;;
71236;SDS011;58984;51.960;5.582;2024-03-23T04:41:03;11.60;;;5.80;;
71236;SDS011;58984;51.960;5.582;2024-03-23T04:43:29;12.32;;;5.93;;
71236;SDS011;58984;51.960;5.582;2024-03-23T04:45:55;12.77;;;6.18;;
71236;SDS011;58984;51.960;5.582;2024-03-23T04:48:21;14.82;;;6.22;;
71236;SDS011;58984;51.960;5.582;2024-03-23T04:50:48;12.57;;;5.65;;
71236;SDS011;58984;51.960;5.582;2024-03-23T04:53:14;14.00;;;5.85;;
71236;SDS011;58984;51.960;5.582;2024-03-23T04:55:41;14.00;;;6.35;;
71236;SDS011;58984;51.960;5.582;2024-03-23T04:58:09;11.48;;;5.13;;
71236;SDS011;58984;51.960;5.582;2024-03-23T05:00:35;12.63;;;5.65;;
71236;SDS011;58984;51.960;5.582;2024-03-23T05:03:00;11.63;;;5.63;;
71236;SDS011;58984;51.960;5.582;2024-03-23T05:05:26;10.63;;;5.65;;
71236;SDS011;58984;51.960;5.582;2024-03-23T05:07:51;13.68;;;5.95;;
71236;SDS011;58984;51.960;5.582;2024-03-23T05:10:17;12.20;;;5.68;;
71236;SDS011;58984;51.960;5.582;2024-03-23T05:12:43;14.52;;;5.35;;
71236;SDS011;58984;51.960;5.582;2024-03-23T05:15:10;13.43;;;5.90;;
71236;SDS011;58984;51.960;5.582;2024-03-23T05:17:36;14.57;;;4.97;;
71236;SDS011;58984;51.960;5.582;2024-03-23T05:20:03;10.57;;;5.15;;
71236;SDS011;58984;51.960;5.582;2024-03-23T05:22:29;13.60;;;5.82;;
71236;SDS011;58984;51.960;5.582;2024-03-23T05:24:55;15.90;;;5.70;;
71236;SDS011;58984;51.960;5.582;2024-03-23T05:27:21;12.45;;;5.05;;
71236;SDS011;58984;51.960;5.582;2024-03-23T05:29:47;10.73;;;4.70;;
71236;SDS011;58984;51.960;5.582;2024-03-23T05:32:12;10.00;;;4.90;;
71236;SDS011;58984;51.960;5.582;2024-03-23T05:34:38;11.95;;;5.07;;
71236;SDS011;58984;51.960;5.582;2024-03-23T05:37:04;9.52;;;5.18;;
71236;SDS011;58984;51.960;5.582;2024-03-23T05:39:29;11.93;;;5.18;;
71236;SDS011;58984;51.960;5.582;2024-03-23T05:41:55;11.07;;;4.72;;
71236;SDS011;58984;51.960;5.582;2024-03-23T05:44:21;11.00;;;4.97;;
71236;SDS011;58984;51.960;5.582;2024-03-23T05:46:46;12.80;;;4.80;;
71236;SDS011;58984;51.960;5.582;2024-03-23T05:49:13;9.82;;;4.28;;
71236;SDS011;58984;51.960;5.582;2024-03-23T05:51:40;14.02;;;4.75;;
71236;SDS011;58984;51.960;5.582;2024-03-23T05:54:06;9.02;;;4.68;;
71236;SDS011;58984;51.960;5.582;2024-03-23T05:56:31;9.68;;;4.53;;
71236;SDS011;58984;51.960;5.582;2024-03-23T05:58:57;12.88;;;5.13;;
71236;SDS011;58984;51.960;5.582;2024-03-23T06:01:23;11.30;;;5.05;;
71236;SDS011;58984;51.960;5.582;2024-03-23T06:03:48;10.02;;;4.55;;
71236;SDS011;58984;51.960;5.582;2024-03-23T06:06:14;10.43;;;4.03;;
71236;SDS011;58984;51.960;5.582;2024-03-23T06:08:40;6.82;;;4.30;;
71236;SDS011;58984;51.960;5.582;2024-03-23T06:11:05;12.32;;;4.00;;
71236;SDS011;58984;51.960;5.582;2024-03-23T06:13:32;9.75;;;4.03;;
71236;SDS011;58984;51.960;5.582;2024-03-23T06:15:59;11.10;;;4.18;;
71236;SDS011;58984;51.960;5.582;2024-03-23T06:18:25;7.65;;;3.80;;
71236;SDS011;58984;51.960;5.582;2024-03-23T06:20:50;10.25;;;4.63;;
71236;SDS011;58984;51.960;5.582;2024-03-23T06:23:16;11.93;;;4.45;;
71236;SDS011;58984;51.960;5.582;2024-03-23T06:25:44;10.93;;;4.45;;
71236;SDS011;58984;51.960;5.582;2024-03-23T06:28:10;7.47;;;4.05;;
71236;SDS011;58984;51.960;5.582;2024-03-23T06:30:36;11.20;;;4.00;;
71236;SDS011;58984;51.960;5.582;2024-03-23T06:33:01;9.02;;;3.88;;
71236;SDS011;58984;51.960;5.582;2024-03-23T06:35:27;6.32;;;3.55;;
71236;SDS011;58984;51.960;5.582;2024-03-23T06:37:53;7.45;;;3.42;;
71236;SDS011;58984;51.960;5.582;2024-03-23T06:40:18;7.35;;;3.83;;
71236;SDS011;58984;51.960;5.582;2024-03-23T06:42:44;8.35;;;4.00;;
71236;SDS011;58984;51.960;5.582;2024-03-23T06:45:10;17.73;;;4.35;;
71236;SDS011;58984;51.960;5.582;2024-03-23T06:47:35;10.80;;;3.88;;
71236;SDS011;58984;51.960;5.582;2024-03-23T06:50:02;8.95;;;3.92;;
71236;SDS011;58984;51.960;5.582;2024-03-23T06:52:28;7.38;;;4.10;;
71236;SDS011;58984;51.960;5.582;2024-03-23T06:54:54;6.78;;;3.70;;
71236;SDS011;58984;51.960;5.582;2024-03-23T06:57:20;9.40;;;4.15;;
71236;SDS011;58984;51.960;5.582;2024-03-23T06:59:46;7.28;;;3.83;;
71236;SDS011;58984;51.960;5.582;2024-03-23T07:02:12;10.65;;;3.72;;
71236;SDS011;58984;51.960;5.582;2024-03-23T07:04:37;8.38;;;3.83;;
71236;SDS011;58984;51.960;5.582;2024-03-23T07:07:04;7.38;;;3.35;;
71236;SDS011;58984;51.960;5.582;2024-03-23T07:09:30;8.55;;;4.20;;
71236;SDS011;58984;51.960;5.582;2024-03-23T07:11:56;7.80;;;3.85;;
71236;SDS011;58984;51.960;5.582;2024-03-23T07:14:22;12.68;;;4.80;;
71236;SDS011;58984;51.960;5.582;2024-03-23T07:16:49;11.15;;;4.13;;
71236;SDS011;58984;51.960;5.582;2024-03-23T07:19:15;8.65;;;4.32;;
71236;SDS011;58984;51.960;5.582;2024-03-23T07:21:45;7.60;;;4.25;;
71236;SDS011;58984;51.960;5.582;2024-03-23T07:24:10;11.60;;;3.88;;
71236;SDS011;58984;51.960;5.582;2024-03-23T07:26:36;7.90;;;4.40;;
71236;SDS011;58984;51.960;5.582;2024-03-23T07:29:05;11.40;;;4.45;;
71236;SDS011;58984;51.960;5.582;2024-03-23T07:31:31;10.05;;;4.20;;
71236;SDS011;58984;51.960;5.582;2024-03-23T07:33:57;8.95;;;4.20;;
71236;SDS011;58984;51.960;5.582;2024-03-23T07:36:22;9.30;;;4.63;;
71236;SDS011;58984;51.960;5.582;2024-03-23T07:38:48;7.85;;;4.35;;
71236;SDS011;58984;51.960;5.582;2024-03-23T07:41:18;8.80;;;4.00;;
71236;SDS011;58984;51.960;5.582;2024-03-23T07:43:45;8.13;;;3.92;;
71236;SDS011;58984;51.960;5.582;2024-03-23T07:46:11;13.30;;;4.07;;
71236;SDS011;58984;51.960;5.582;2024-03-23T07:48:38;9.50;;;4.05;;
71236;SDS011;58984;51.960;5.582;2024-03-23T07:51:08;6.85;;;4.15;;
71236;SDS011;58984;51.960;5.582;2024-03-23T07:53:35;11.13;;;4.72;;
71236;SDS011;58984;51.960;5.582;2024-03-23T07:56:04;6.13;;;4.15;;
71236;SDS011;58984;51.960;5.582;2024-03-23T07:58:31;7.50;;;3.85;;
71236;SDS011;58984;51.960;5.582;2024-03-23T08:01:03;10.30;;;4.03;;
71236;SDS011;58984;51.960;5.582;2024-03-23T08:03:42;8.23;;;4.10;;
71236;SDS011;58984;51.960;5.582;2024-03-23T08:06:15;7.90;;;3.95;;
71236;SDS011;58984;51.960;5.582;2024-03-23T08:08:43;7.93;;;4.07;;
71236;SDS011;58984;51.960;5.582;2024-03-23T08:11:10;9.68;;;4.00;;
71236;SDS011;58984;51.960;5.582;2024-03-23T08:13:36;7.88;;;4.15;;
71236;SDS011;58984;51.960;5.582;2024-03-23T08:16:04;12.05;;;4.20;;
71236;SDS011;58984;51.960;5.582;2024-03-23T08:18:30;6.53;;;3.80;;
71236;SDS011;58984;51.960;5.582;2024-03-23T08:23:22;13.13;;;4.20;;
71236;SDS011;58984;51.960;5.582;2024-03-23T08:25:48;8.95;;;4.07;;
71236;SDS011;58984;51.960;5.582;2024-03-23T08:28:14;6.65;;;3.70;;
71236;SDS011;58984;51.960;5.582;2024-03-23T08:30:40;5.10;;;3.63;;
71236;SDS011;58984;51.960;5.582;2024-03-23T08:33:05;7.65;;;3.45;;
71236;SDS011;58984;51.960;5.582;2024-03-23T08:35:31;6.90;;;3.60;;
71236;SDS011;58984;51.960;5.582;2024-03-23T08:37:56;8.57;;;4.00;;
71236;SDS011;58984;51.960;5.582;2024-03-23T08:40:22;7.30;;;3.65;;
71236;SDS011;58984;51.960;5.582;2024-03-23T08:42:48;5.30;;;3.78;;
71236;SDS011;58984;51.960;5.582;2024-03-23T08:45:13;8.93;;;3.50;;
71236;SDS011;58984;51.960;5.582;2024-03-23T08:47:39;4.93;;;3.28;;
71236;SDS011;58984;51.960;5.582;2024-03-23T08:50:05;8.80;;;3.40;;
71236;SDS011;58984;51.960;5.582;2024-03-23T08:52:31;6.13;;;3.15;;
71236;SDS011;58984;51.960;5.582;2024-03-23T08:54:57;7.30;;;3.30;;
71236;SDS011;58984;51.960;5.582;2024-03-23T08:57:23;9.50;;;3.55;;
71236;SDS011;58984;51.960;5.582;2024-03-23T08:59:49;10.98;;;3.63;;
71236;SDS011;58984;51.960;5.582;2024-03-23T09:02:15;6.43;;;3.38;;
71236;SDS011;58984;51.960;5.582;2024-03-23T09:04:40;7.20;;;2.83;;
71236;SDS011;58984;51.960;5.582;2024-03-23T09:07:06;7.07;;;3.05;;
71236;SDS011;58984;51.960;5.582;2024-03-23T09:09:32;7.68;;;2.80;;
71236;SDS011;58984;51.960;5.582;2024-03-23T09:11:57;5.70;;;2.65;;
71236;SDS011;58984;51.960;5.582;2024-03-23T09:14:23;4.25;;;2.92;;
71236;SDS011;58984;51.960;5.582;2024-03-23T09:16:51;5.68;;;3.10;;
71236;SDS011;58984;51.960;5.582;2024-03-23T09:19:17;6.93;;;3.03;;
71236;SDS011;58984;51.960;5.582;2024-03-23T09:21:43;7.78;;;3.35;;
71236;SDS011;58984;51.960;5.582;2024-03-23T09:24:09;5.20;;;2.97;;
71236;SDS011;58984;51.960;5.582;2024-03-23T09:26:34;7.47;;;3.47;;
71236;SDS011;58984;51.960;5.582;2024-03-23T09:29:00;5.20;;;2.60;;
71236;SDS011;58984;51.960;5.582;2024-03-23T09:31:26;6.28;;;3.10;;
71236;SDS011;58984;51.960;5.582;2024-03-23T09:33:51;8.20;;;3.28;;
71236;SDS011;58984;51.960;5.582;2024-03-23T09:36:17;9.32;;;3.30;;
71236;SDS011;58984;51.960;5.582;2024-03-23T09:38:42;5.78;;;2.80;;
71236;SDS011;58984;51.960;5.582;2024-03-23T09:41:08;5.68;;;3.30;;
71236;SDS011;58984;51.960;5.582;2024-03-23T09:43:34;8.95;;;3.53;;
71236;SDS011;58984;51.960;5.582;2024-03-23T09:46:01;9.32;;;2.95;;
71236;SDS011;58984;51.960;5.582;2024-03-23T09:48:27;11.65;;;3.40;;
71236;SDS011;58984;51.960;5.582;2024-03-23T09:50:53;3.55;;;2.60;;
71236;SDS011;58984;51.960;5.582;2024-03-23T09:53:19;6.57;;;3.03;;
71236;SDS011;58984;51.960;5.582;2024-03-23T09:55:45;8.68;;;3.38;;
71236;SDS011;58984;51.960;5.582;2024-03-23T09:58:15;5.63;;;2.67;;
71236;SDS011;58984;51.960;5.582;2024-03-23T10:00:42;5.93;;;2.90;;
71236;SDS011;58984;51.960;5.582;2024-03-23T10:03:08;4.70;;;2.50;;
71236;SDS011;58984;51.960;5.582;2024-03-23T10:05:36;8.55;;;3.10;;
71236;SDS011;58984;51.960;5.582;2024-03-23T10:08:17;7.57;;;2.55;;
71236;SDS011;58984;51.960;5.582;2024-03-23T10:10:46;9.88;;;3.55;;
71236;SDS011;58984;51.960;5.582;2024-03-23T10:13:23;6.30;;;2.92;;
71236;SDS011;58984;51.960;5.582;2024-03-23T10:15:54;6.40;;;3.00;;
71236;SDS011;58984;51.960;5.582;2024-03-23T10:18:23;6.75;;;2.63;;
71236;SDS011;58984;51.960;5.582;2024-03-23T10:23:35;3.60;;;2.30;;
71236;SDS011;58984;51.960;5.582;2024-03-23T10:26:23;9.98;;;3.25;;
71236;SDS011;58984;51.960;5.582;2024-03-23T10:28:53;7.70;;;2.38;;
71236;SDS011;58984;51.960;5.582;2024-03-23T10:31:20;8.90;;;2.92;;
71236;SDS011;58984;51.960;5.582;2024-03-23T10:33:46;11.95;;;3.20;;
71236;SDS011;58984;51.960;5.582;2024-03-23T10:36:12;6.95;;;2.72;;
71236;SDS011;58984;51.960;5.582;2024-03-23T10:38:40;5.13;;;2.45;;
71236;SDS011;58984;51.960;5.582;2024-03-23T10:41:07;5.30;;;2.70;;
71236;SDS011;58984;51.960;5.582;2024-03-23T10:43:34;8.30;;;3.55;;
71236;SDS011;58984;51.960;5.582;2024-03-23T10:46:02;6.55;;;3.03;;
71236;SDS011;58984;51.960;5.582;2024-03-23T10:48:28;5.78;;;3.00;;
71236;SDS011;58984;51.960;5.582;2024-03-23T10:50:53;8.50;;;3.20;;
71236;SDS011;58984;51.960;5.582;2024-03-23T10:53:21;6.57;;;2.63;;
71236;SDS011;58984;51.960;5.582;2024-03-23T10:55:50;4.47;;;2.47;;
71236;SDS011;58984;51.960;5.582;2024-03-23T10:58:17;5.15;;;3.42;;
71236;SDS011;58984;51.960;5.582;2024-03-23T11:00:55;7.20;;;3.08;;
71236;SDS011;58984;51.960;5.582;2024-03-23T11:03:33;5.18;;;2.75;;
71236;SDS011;58984;51.960;5.582;2024-03-23T11:06:06;5.07;;;2.97;;
71236;SDS011;58984;51.960;5.582;2024-03-23T11:08:39;6.05;;;3.35;;
71236;SDS011;58984;51.960;5.582;2024-03-23T11:13:43;6.30;;;2.85;;
71236;SDS011;58984;51.960;5.582;2024-03-23T11:16:13;3.28;;;2.58;;
71236;SDS011;58984;51.960;5.582;2024-03-23T11:22:03;4.90;;;2.95;;
71236;SDS011;58984;51.960;5.582;2024-03-23T11:24:30;10.85;;;3.03;;
71236;SDS011;58984;51.960;5.582;2024-03-23T11:26:56;6.93;;;3.22;;
71236;SDS011;58984;51.960;5.582;2024-03-23T11:29:25;5.20;;;2.35;;
71236;SDS011;58984;51.960;5.582;2024-03-23T11:31:52;4.88;;;2.30;;
71236;SDS011;58984;51.960;5.582;2024-03-23T11:34:21;4.35;;;2.67;;
71236;SDS011;58984;51.960;5.582;2024-03-23T11:36:47;2.95;;;2.13;;
71236;SDS011;58984;51.960;5.582;2024-03-23T11:39:16;4.85;;;2.42;;
71236;SDS011;58984;51.960;5.582;2024-03-23T11:44:18;7.72;;;2.35;;
71236;SDS011;58984;51.960;5.582;2024-03-23T11:46:45;4.00;;;2.55;;
71236;SDS011;58984;51.960;5.582;2024-03-23T11:51:47;5.10;;;2.70;;
71236;SDS011;58984;51.960;5.582;2024-03-23T11:54:13;6.88;;;3.28;;
71236;SDS011;58984;51.960;5.582;2024-03-23T11:56:39;6.22;;;3.03;;
71236;SDS011;58984;51.960;5.582;2024-03-23T11:59:04;6.10;;;2.72;;
71236;SDS011;58984;51.960;5.582;2024-03-23T12:01:31;6.20;;;3.00;;
71236;SDS011;58984;51.960;5.582;2024-03-23T12:03:57;5.55;;;2.90;;
71236;SDS011;58984;51.960;5.582;2024-03-23T12:06:23;9.52;;;3.10;;
71236;SDS011;58984;51.960;5.582;2024-03-23T12:08:48;6.57;;;3.20;;
71236;SDS011;58984;51.960;5.582;2024-03-23T12:11:17;8.68;;;3.03;;
71236;SDS011;58984;51.960;5.582;2024-03-23T12:13:44;7.35;;;3.38;;
71236;SDS011;58984;51.960;5.582;2024-03-23T12:16:16;4.57;;;2.83;;
71236;SDS011;58984;51.960;5.582;2024-03-23T12:18:46;6.05;;;3.13;;
71236;SDS011;58984;51.960;5.582;2024-03-23T12:21:12;6.05;;;2.72;;
71236;SDS011;58984;51.960;5.582;2024-03-23T12:23:39;9.30;;;2.95;;
71236;SDS011;58984;51.960;5.582;2024-03-23T12:26:05;8.32;;;2.97;;
71236;SDS011;58984;51.960;5.582;2024-03-23T12:28:31;6.30;;;2.72;;
71236;SDS011;58984;51.960;5.582;2024-03-23T12:30:57;9.25;;;2.50;;
71236;SDS011;58984;51.960;5.582;2024-03-23T12:33:23;5.10;;;2.45;;
71236;SDS011;58984;51.960;5.582;2024-03-23T12:35:49;9.93;;;3.15;;
71236;SDS011;58984;51.960;5.582;2024-03-23T12:38:16;6.20;;;2.53;;
71236;SDS011;58984;51.960;5.582;2024-03-23T12:40:42;6.57;;;3.22;;
71236;SDS011;58984;51.960;5.582;2024-03-23T12:43:17;5.88;;;2.95;;
71236;SDS011;58984;51.960;5.582;2024-03-23T12:45:46;10.60;;;2.88;;
71236;SDS011;58984;51.960;5.582;2024-03-23T12:48:12;5.25;;;2.50;;
71236;SDS011;58984;51.960;5.582;2024-03-23T12:50:38;5.60;;;3.05;;
71236;SDS011;58984;51.960;5.582;2024-03-23T12:53:04;5.97;;;2.80;;
71236;SDS011;58984;51.960;5.582;2024-03-23T12:55:29;7.95;;;3.05;;
71236;SDS011;58984;51.960;5.582;2024-03-23T12:57:55;7.15;;;2.83;;
71236;SDS011;58984;51.960;5.582;2024-03-23T13:00:21;6.18;;;3.20;;
71236;SDS011;58984;51.960;5.582;2024-03-23T13:02:47;7.72;;;3.00;;
71236;SDS011;58984;51.960;5.582;2024-03-23T13:05:13;4.38;;;2.90;;
71236;SDS011;58984;51.960;5.582;2024-03-23T13:07:38;6.45;;;2.63;;
71236;SDS011;58984;51.960;5.582;2024-03-23T13:10:05;5.22;;;2.53;;
71236;SDS011;58984;51.960;5.582;2024-03-23T13:12:31;6.47;;;2.88;;
71236;SDS011;58984;51.960;5.582;2024-03-23T13:14:58;13.25;;;3.50;;
71236;SDS011;58984;51.960;5.582;2024-03-23T13:17:24;6.75;;;2.97;;
71236;SDS011;58984;51.960;5.582;2024-03-23T13:19:52;7.50;;;3.13;;
71236;SDS011;58984;51.960;5.582;2024-03-23T13:22:18;6.85;;;2.78;;
71236;SDS011;58984;51.960;5.582;2024-03-23T13:24:43;9.20;;;2.55;;
71236;SDS011;58984;51.960;5.582;2024-03-23T13:27:09;5.97;;;2.92;;
71236;SDS011;58984;51.960;5.582;2024-03-23T13:29:36;4.97;;;2.50;;
71236;SDS011;58984;51.960;5.582;2024-03-23T13:32:02;4.75;;;2.63;;
71236;SDS011;58984;51.960;5.582;2024-03-23T13:34:29;5.15;;;2.40;;
71236;SDS011;58984;51.960;5.582;2024-03-23T13:36:55;6.95;;;2.40;;
71236;SDS011;58984;51.960;5.582;2024-03-23T13:39:23;6.03;;;2.35;;
71236;SDS011;58984;51.960;5.582;2024-03-23T13:41:49;4.38;;;2.35;;
71236;SDS011;58984;51.960;5.582;2024-03-23T13:44:14;4.63;;;2.33;;
71236;SDS011;58984;51.960;5.582;2024-03-23T13:46:41;5.05;;;2.78;;
71236;SDS011;58984;51.960;5.582;2024-03-23T13:49:08;5.43;;;2.47;;
71236;SDS011;58984;51.960;5.582;2024-03-23T13:51:58;6.25;;;2.75;;
71236;SDS011;58984;51.960;5.582;2024-03-23T13:54:24;3.50;;;2.63;;
71236;SDS011;58984;51.960;5.582;2024-03-23T13:56:51;4.88;;;2.60;;
71236;SDS011;58984;51.960;5.582;2024-03-23T13:59:17;4.10;;;2.10;;
71236;SDS011;58984;51.960;5.582;2024-03-23T14:01:46;4.68;;;2.53;;
71236;SDS011;58984;51.960;5.582;2024-03-23T14:04:12;5.90;;;2.38;;
71236;SDS011;58984;51.960;5.582;2024-03-23T14:06:38;5.40;;;2.30;;
71236;SDS011;58984;51.960;5.582;2024-03-23T14:09:04;7.65;;;2.67;;
71236;SDS011;58984;51.960;5.582;2024-03-23T14:11:36;5.72;;;2.50;;
71236;SDS011;58984;51.960;5.582;2024-03-23T14:14:03;5.57;;;2.70;;
71236;SDS011;58984;51.960;5.582;2024-03-23T14:16:32;6.47;;;2.42;;
71236;SDS011;58984;51.960;5.582;2024-03-23T14:18:58;5.25;;;2.40;;
71236;SDS011;58984;51.960;5.582;2024-03-23T14:21:24;6.85;;;2.33;;
71236;SDS011;58984;51.960;5.582;2024-03-23T14:23:50;7.47;;;2.40;;
71236;SDS011;58984;51.960;5.582;2024-03-23T14:26:16;3.45;;;2.15;;
71236;SDS011;58984;51.960;5.582;2024-03-23T14:28:42;7.15;;;2.50;;
71236;SDS011;58984;51.960;5.582;2024-03-23T14:31:07;8.00;;;2.95;;
71236;SDS011;58984;51.960;5.582;2024-03-23T14:33:38;5.38;;;2.65;;
71236;SDS011;58984;51.960;5.582;2024-03-23T14:36:11;3.78;;;2.33;;
71236;SDS011;58984;51.960;5.582;2024-03-23T14:38:38;7.75;;;2.83;;
71236;SDS011;58984;51.960;5.582;2024-03-23T14:41:05;12.63;;;2.97;;
71236;SDS011;58984;51.960;5.582;2024-03-23T14:43:30;4.22;;;2.42;;
71236;SDS011;58984;51.960;5.582;2024-03-23T14:46:06;6.55;;;3.00;;
71236;SDS011;58984;51.960;5.582;2024-03-23T14:48:39;7.68;;;2.50;;
71236;SDS011;58984;51.960;5.582;2024-03-23T14:51:06;5.65;;;2.40;;
71236;SDS011;58984;51.960;5.582;2024-03-23T14:53:33;8.60;;;3.13;;
71236;SDS011;58984;51.960;5.582;2024-03-23T14:56:00;7.13;;;2.78;;
71236;SDS011;58984;51.960;5.582;2024-03-23T14:58:27;8.18;;;3.08;;
71236;SDS011;58984;51.960;5.582;2024-03-23T15:00:57;9.90;;;3.38;;
71236;SDS011;58984;51.960;5.582;2024-03-23T15:03:28;10.00;;;3.33;;
71236;SDS011;58984;51.960;5.582;2024-03-23T15:05:57;7.38;;;2.75;;
71236;SDS011;58984;51.960;5.582;2024-03-23T15:08:25;7.97;;;2.88;;
71236;SDS011;58984;51.960;5.582;2024-03-23T15:10:51;4.97;;;2.53;;
71236;SDS011;58984;51.960;5.582;2024-03-23T15:13:17;5.43;;;3.25;;
71236;SDS011;58984;51.960;5.582;2024-03-23T15:15:43;6.70;;;2.70;;
71236;SDS011;58984;51.960;5.582;2024-03-23T15:18:13;5.95;;;2.78;;
71236;SDS011;58984;51.960;5.582;2024-03-23T15:20:57;10.68;;;3.53;;
71236;SDS011;58984;51.960;5.582;2024-03-23T15:23:27;9.45;;;3.17;;
71236;SDS011;58984;51.960;5.582;2024-03-23T15:26:01;8.48;;;3.13;;
71236;SDS011;58984;51.960;5.582;2024-03-23T15:28:27;5.63;;;2.42;;
71236;SDS011;58984;51.960;5.582;2024-03-23T15:31:09;4.00;;;2.15;;
71236;SDS011;58984;51.960;5.582;2024-03-23T15:33:35;5.80;;;1.90;;
71236;SDS011;58984;51.960;5.582;2024-03-23T15:36:04;2.22;;;1.70;;
71236;SDS011;58984;51.960;5.582;2024-03-23T15:38:33;3.90;;;1.98;;
71236;SDS011;58984;51.960;5.582;2024-03-23T15:40:59;3.28;;;2.03;;
71236;SDS011;58984;51.960;5.582;2024-03-23T15:43:25;3.00;;;1.90;;
71236;SDS011;58984;51.960;5.582;2024-03-23T15:45:58;3.03;;;1.83;;
71236;SDS011;58984;51.960;5.582;2024-03-23T15:48:25;4.68;;;1.67;;